createdAt,value
2023-05-19T00:00:04.000Z,10.007812500000002
2023-05-19T00:01:04.000Z,10.330078124999996
2023-05-19T00:02:04.000Z,10.652343750000004
2023-05-19T00:03:04.000Z,11.296874999999995
2023-05-19T00:04:05.000Z,10.330078124999996
2023-05-19T00:05:05.000Z,10.652343750000004
2023-05-19T00:06:05.000Z,10.330078124999996
2023-05-19T00:07:05.000Z,10.330078124999996
2023-05-19T00:08:06.000Z,10.330078124999996
2023-05-19T00:09:06.000Z,11.619140625000002
2023-05-19T00:10:06.000Z,10.330078124999996
2023-05-19T00:11:06.000Z,10.007812500000002
2023-05-19T00:12:06.000Z,10.330078124999996
2023-05-19T00:13:07.000Z,11.296874999999995
2023-05-19T00:14:07.000Z,10.007812500000002
2023-05-19T00:15:07.000Z,11.296874999999995
2023-05-19T00:16:07.000Z,10.652343750000004
2023-05-19T00:17:08.000Z,11.296874999999995
2023-05-19T00:18:08.000Z,10.330078124999996
2023-05-19T00:19:08.000Z,10.007812500000002
2023-05-19T00:20:08.000Z,10.652343750000004
2023-05-19T00:21:08.000Z,10.007812500000002
2023-05-19T00:22:09.000Z,9.041015625000004
2023-05-19T00:23:09.000Z,9.041015625000004
2023-05-19T00:24:09.000Z,11.296874999999995
2023-05-19T00:25:09.000Z,10.330078124999996
2023-05-19T00:26:10.000Z,9.36328125
2023-05-19T00:27:10.000Z,10.007812500000002
2023-05-19T00:28:10.000Z,10.007812500000002
2023-05-19T00:29:10.000Z,10.007812500000002
2023-05-19T00:30:11.000Z,11.619140625000002
2023-05-19T00:31:11.000Z,11.619140625000002
2023-05-19T00:32:11.000Z,10.330078124999996
2023-05-19T00:33:11.000Z,10.330078124999996
2023-05-19T00:34:11.000Z,10.330078124999996
2023-05-19T00:35:11.000Z,10.330078124999996
2023-05-19T00:36:12.000Z,10.330078124999996
2023-05-19T00:37:12.000Z,10.330078124999996
2023-05-19T00:38:12.000Z,10.330078124999996
2023-05-19T00:39:12.000Z,9.685546874999995
2023-05-19T00:40:12.000Z,9.36328125
2023-05-19T00:41:13.000Z,10.652343750000004
2023-05-19T00:42:13.000Z,10.330078124999996
2023-05-19T00:43:13.000Z,10.974609375
2023-05-19T00:44:13.000Z,10.330078124999996
2023-05-19T00:45:13.000Z,10.652343750000004
2023-05-19T00:46:14.000Z,10.007812500000002
2023-05-19T00:47:14.000Z,10.652343750000004
2023-05-19T00:48:14.000Z,11.296874999999995
2023-05-19T00:49:14.000Z,10.652343750000004
2023-05-19T00:50:14.000Z,10.652343750000004
2023-05-19T00:51:15.000Z,10.007812500000002
2023-05-19T00:52:15.000Z,10.330078124999996
2023-05-19T00:53:15.000Z,10.007812500000002
2023-05-19T00:54:15.000Z,10.007812500000002
2023-05-19T00:55:16.000Z,10.974609375
2023-05-19T00:56:16.000Z,10.974609375
2023-05-19T00:57:16.000Z,10.652343750000004
2023-05-19T00:58:16.000Z,8.718749999999996
2023-05-19T00:59:17.000Z,10.974609375
2023-05-19T01:00:17.000Z,10.330078124999996
2023-05-19T01:01:17.000Z,9.041015625000004
2023-05-19T01:02:17.000Z,10.330078124999996
2023-05-19T01:03:17.000Z,10.330078124999996
2023-05-19T01:04:18.000Z,10.330078124999996
2023-05-19T01:05:18.000Z,10.007812500000002
2023-05-19T01:06:18.000Z,10.652343750000004
2023-05-19T01:07:18.000Z,10.007812500000002
2023-05-19T01:08:18.000Z,10.652343750000004
2023-05-19T01:09:19.000Z,8.718749999999996
2023-05-19T01:10:19.000Z,11.619140625000002
2023-05-19T01:11:19.000Z,10.330078124999996
2023-05-19T01:12:19.000Z,10.007812500000002
2023-05-19T01:13:19.000Z,10.652343750000004
2023-05-19T01:14:20.000Z,10.330078124999996
2023-05-19T01:15:20.000Z,12.5859375
2023-05-19T01:16:20.000Z,10.007812500000002
2023-05-19T01:17:20.000Z,10.007812500000002
2023-05-19T01:18:21.000Z,11.619140625000002
2023-05-19T01:19:21.000Z,10.330078124999996
2023-05-19T01:20:21.000Z,10.007812500000002
2023-05-19T01:21:21.000Z,11.296874999999995
2023-05-19T01:22:21.000Z,10.330078124999996
2023-05-19T01:23:22.000Z,10.330078124999996
2023-05-19T01:24:22.000Z,7.751953125
2023-05-19T01:25:22.000Z,10.330078124999996
2023-05-19T01:26:22.000Z,10.007812500000002
2023-05-19T01:27:22.000Z,10.330078124999996
2023-05-19T01:28:23.000Z,10.652343750000004
2023-05-19T01:29:23.000Z,10.330078124999996
2023-05-19T01:30:23.000Z,10.007812500000002
2023-05-19T01:31:23.000Z,10.974609375
2023-05-19T01:32:24.000Z,10.007812500000002
2023-05-19T01:33:24.000Z,10.007812500000002
2023-05-19T01:34:24.000Z,10.652343750000004
2023-05-19T01:35:24.000Z,10.330078124999996
2023-05-19T01:36:25.000Z,10.007812500000002
2023-05-19T01:37:25.000Z,9.36328125
2023-05-19T01:38:25.000Z,10.974609375
2023-05-19T01:39:25.000Z,9.36328125
2023-05-19T01:40:25.000Z,9.041015625000004
2023-05-19T01:41:26.000Z,10.974609375
2023-05-19T01:42:26.000Z,10.330078124999996
2023-05-19T01:43:26.000Z,10.652343750000004
2023-05-19T01:44:26.000Z,9.36328125
2023-05-19T01:45:26.000Z,10.330078124999996
2023-05-19T01:46:27.000Z,10.007812500000002
2023-05-19T01:47:27.000Z,10.330078124999996
2023-05-19T01:48:27.000Z,10.007812500000002
2023-05-19T01:49:27.000Z,11.619140625000002
2023-05-19T01:50:33.000Z,9.041015625000004
2023-05-19T01:51:33.000Z,10.330078124999996
2023-05-19T01:52:33.000Z,10.007812500000002
2023-05-19T01:53:33.000Z,10.652343750000004
2023-05-19T01:54:33.000Z,10.330078124999996
2023-05-19T01:55:34.000Z,9.685546874999995
2023-05-19T01:56:34.000Z,10.330078124999996
2023-05-19T01:57:34.000Z,10.974609375
2023-05-19T01:58:34.000Z,10.007812500000002
2023-05-19T01:59:34.000Z,9.041015625000004
2023-05-19T02:00:35.000Z,10.330078124999996
2023-05-19T02:01:35.000Z,9.041015625000004
2023-05-19T02:02:35.000Z,10.330078124999996
2023-05-19T02:03:35.000Z,10.007812500000002
2023-05-19T02:04:35.000Z,9.041015625000004
2023-05-19T02:05:36.000Z,8.718749999999996
2023-05-19T02:06:36.000Z,9.685546874999995
2023-05-19T02:07:36.000Z,10.330078124999996
2023-05-19T02:08:36.000Z,10.652343750000004
2023-05-19T02:09:37.000Z,10.652343750000004
2023-05-19T02:10:37.000Z,10.330078124999996
2023-05-19T02:11:37.000Z,11.296874999999995
2023-05-19T02:12:37.000Z,11.296874999999995
2023-05-19T02:13:37.000Z,9.36328125
2023-05-19T02:14:37.000Z,10.330078124999996
2023-05-19T02:15:38.000Z,10.007812500000002
2023-05-19T02:16:38.000Z,10.974609375
2023-05-19T02:17:38.000Z,10.007812500000002
2023-05-19T02:18:38.000Z,9.685546874999995
2023-05-19T02:19:39.000Z,10.007812500000002
2023-05-19T02:20:39.000Z,9.685546874999995
2023-05-19T02:21:39.000Z,10.330078124999996
2023-05-19T02:22:39.000Z,10.652343750000004
2023-05-19T02:23:39.000Z,9.041015625000004
2023-05-19T02:24:40.000Z,10.330078124999996
2023-05-19T02:25:40.000Z,10.330078124999996
2023-05-19T02:26:40.000Z,10.330078124999996
2023-05-19T02:27:40.000Z,9.36328125
2023-05-19T02:28:41.000Z,10.330078124999996
2023-05-19T02:29:41.000Z,10.330078124999996
2023-05-19T02:30:41.000Z,10.007812500000002
2023-05-19T02:31:41.000Z,10.330078124999996
2023-05-19T02:32:41.000Z,10.330078124999996
2023-05-19T02:33:42.000Z,10.007812500000002
2023-05-19T02:34:42.000Z,10.330078124999996
2023-05-19T02:35:42.000Z,9.36328125
2023-05-19T02:36:42.000Z,10.007812500000002
2023-05-19T02:37:43.000Z,10.007812500000002
2023-05-19T02:38:43.000Z,10.330078124999996
2023-05-19T02:39:43.000Z,10.007812500000002
2023-05-19T02:40:43.000Z,9.36328125
2023-05-19T02:41:43.000Z,10.330078124999996
2023-05-19T02:42:44.000Z,10.330078124999996
2023-05-19T02:43:44.000Z,9.685546874999995
2023-05-19T02:44:44.000Z,10.974609375
2023-05-19T02:45:49.000Z,10.652343750000004
2023-05-19T02:46:49.000Z,9.041015625000004
2023-05-19T02:47:50.000Z,10.974609375
2023-05-19T02:48:50.000Z,11.296874999999995
2023-05-19T02:49:55.000Z,8.718749999999996
2023-05-19T02:50:55.000Z,9.041015625000004
2023-05-19T02:51:55.000Z,10.007812500000002
2023-05-19T02:52:56.000Z,10.974609375
2023-05-19T02:53:56.000Z,8.718749999999996
2023-05-19T02:54:56.000Z,9.041015625000004
2023-05-19T02:55:56.000Z,10.330078124999996
2023-05-19T02:56:57.000Z,10.330078124999996
2023-05-19T02:57:57.000Z,10.974609375
2023-05-19T02:58:57.000Z,9.685546874999995
2023-05-19T02:59:57.000Z,9.685546874999995
2023-05-19T03:00:57.000Z,9.041015625000004
2023-05-19T03:01:57.000Z,10.007812500000002
2023-05-19T03:02:58.000Z,10.974609375
2023-05-19T03:03:58.000Z,10.974609375
2023-05-19T03:04:58.000Z,10.007812500000002
2023-05-19T03:05:59.000Z,10.330078124999996
2023-05-19T03:06:59.000Z,10.330078124999996
2023-05-19T03:07:59.000Z,10.330078124999996
2023-05-19T03:08:59.000Z,10.007812500000002
2023-05-19T03:09:59.000Z,10.007812500000002
2023-05-19T03:10:59.000Z,11.296874999999995
2023-05-19T03:12:00.000Z,10.330078124999996
2023-05-19T03:13:00.000Z,10.974609375
2023-05-19T03:14:00.000Z,9.041015625000004
2023-05-19T03:15:00.000Z,10.652343750000004
2023-05-19T03:16:00.000Z,10.974609375
2023-05-19T03:17:00.000Z,8.396484375000002
2023-05-19T03:18:01.000Z,10.330078124999996
2023-05-19T03:19:01.000Z,10.007812500000002
2023-05-19T03:20:01.000Z,10.652343750000004
2023-05-19T03:21:02.000Z,10.007812500000002
2023-05-19T03:22:02.000Z,9.685546874999995
2023-05-19T03:23:02.000Z,10.007812500000002
2023-05-19T03:24:02.000Z,8.718749999999996
2023-05-19T03:25:02.000Z,9.685546874999995
2023-05-19T03:26:02.000Z,10.330078124999996
2023-05-19T03:27:03.000Z,10.007812500000002
2023-05-19T03:28:03.000Z,10.007812500000002
2023-05-19T03:29:03.000Z,10.652343750000004
2023-05-19T03:30:04.000Z,10.007812500000002
2023-05-19T03:31:04.000Z,10.974609375
2023-05-19T03:32:04.000Z,9.36328125
2023-05-19T03:33:04.000Z,11.296874999999995
2023-05-19T03:34:05.000Z,9.041015625000004
2023-05-19T03:35:05.000Z,9.685546874999995
2023-05-19T03:36:05.000Z,11.296874999999995
2023-05-19T03:37:05.000Z,10.007812500000002
2023-05-19T03:38:05.000Z,10.007812500000002
2023-05-19T03:39:06.000Z,10.007812500000002
2023-05-19T03:40:06.000Z,10.007812500000002
2023-05-19T03:41:06.000Z,10.007812500000002
2023-05-19T03:42:06.000Z,9.36328125
2023-05-19T03:43:07.000Z,8.718749999999996
2023-05-19T03:44:07.000Z,10.007812500000002
2023-05-19T03:45:07.000Z,11.941406249999996
2023-05-19T03:46:07.000Z,10.974609375
2023-05-19T03:47:08.000Z,10.330078124999996
2023-05-19T03:48:08.000Z,10.007812500000002
2023-05-19T03:49:08.000Z,9.685546874999995
2023-05-19T03:50:08.000Z,10.007812500000002
2023-05-19T03:51:09.000Z,10.330078124999996
2023-05-19T03:52:09.000Z,10.007812500000002
2023-05-19T03:53:09.000Z,10.652343750000004
2023-05-19T03:54:09.000Z,10.007812500000002
2023-05-19T03:55:09.000Z,8.718749999999996
2023-05-19T03:56:10.000Z,9.041015625000004
2023-05-19T03:57:10.000Z,9.685546874999995
2023-05-19T03:58:10.000Z,9.685546874999995
2023-05-19T03:59:10.000Z,11.296874999999995
2023-05-19T04:00:11.000Z,10.007812500000002
2023-05-19T04:01:11.000Z,10.007812500000002
2023-05-19T04:02:11.000Z,10.974609375
2023-05-19T04:03:11.000Z,10.330078124999996
2023-05-19T04:04:11.000Z,10.330078124999996
2023-05-19T04:05:11.000Z,10.330078124999996
2023-05-19T04:06:12.000Z,10.007812500000002
2023-05-19T04:07:12.000Z,10.330078124999996
2023-05-19T04:08:12.000Z,10.330078124999996
2023-05-19T04:09:13.000Z,10.007812500000002
2023-05-19T04:10:13.000Z,9.041015625000004
2023-05-19T04:11:13.000Z,10.330078124999996
2023-05-19T04:12:14.000Z,10.330078124999996
2023-05-19T04:13:14.000Z,10.330078124999996
2023-05-19T04:14:14.000Z,10.007812500000002
2023-05-19T04:15:14.000Z,10.007812500000002
2023-05-19T04:16:15.000Z,10.652343750000004
2023-05-19T04:17:15.000Z,10.330078124999996
2023-05-19T04:18:15.000Z,10.330078124999996
2023-05-19T04:19:15.000Z,11.296874999999995
2023-05-19T04:20:15.000Z,9.041015625000004
2023-05-19T04:21:16.000Z,10.974609375
2023-05-19T04:22:16.000Z,10.330078124999996
2023-05-19T04:23:16.000Z,10.652343750000004
2023-05-19T04:24:16.000Z,11.296874999999995
2023-05-19T04:25:16.000Z,10.652343750000004
2023-05-19T04:26:17.000Z,9.685546874999995
2023-05-19T04:27:17.000Z,10.007812500000002
2023-05-19T04:28:17.000Z,10.007812500000002
2023-05-19T04:29:17.000Z,9.041015625000004
2023-05-19T04:30:17.000Z,10.652343750000004
2023-05-19T04:31:18.000Z,11.619140625000002
2023-05-19T04:32:18.000Z,10.330078124999996
2023-05-19T04:33:18.000Z,11.619140625000002
2023-05-19T04:34:18.000Z,10.330078124999996
2023-05-19T04:35:19.000Z,10.330078124999996
2023-05-19T04:36:19.000Z,10.974609375
2023-05-19T04:37:19.000Z,9.685546874999995
2023-05-19T04:38:19.000Z,10.330078124999996
2023-05-19T04:39:20.000Z,11.296874999999995
2023-05-19T04:40:20.000Z,10.330078124999996
2023-05-19T04:41:20.000Z,10.330078124999996
2023-05-19T04:42:20.000Z,10.652343750000004
2023-05-19T04:43:21.000Z,10.652343750000004
2023-05-19T04:44:21.000Z,9.685546874999995
2023-05-19T04:45:21.000Z,10.652343750000004
2023-05-19T04:46:21.000Z,10.330078124999996
2023-05-19T04:47:22.000Z,9.685546874999995
2023-05-19T04:48:22.000Z,9.36328125
2023-05-19T04:49:22.000Z,9.685546874999995
2023-05-19T04:50:22.000Z,10.652343750000004
2023-05-19T04:51:22.000Z,10.330078124999996
2023-05-19T04:52:23.000Z,10.652343750000004
2023-05-19T04:53:23.000Z,9.041015625000004
2023-05-19T04:54:23.000Z,9.685546874999995
2023-05-19T04:55:23.000Z,10.330078124999996
2023-05-19T04:56:23.000Z,10.974609375
2023-05-19T04:57:24.000Z,10.007812500000002
2023-05-19T04:58:24.000Z,10.007812500000002
2023-05-19T04:59:24.000Z,10.652343750000004
2023-05-19T05:00:24.000Z,11.941406249999996
2023-05-19T05:01:24.000Z,10.330078124999996
2023-05-19T05:02:24.000Z,11.296874999999995
2023-05-19T05:03:25.000Z,11.296874999999995
2023-05-19T05:04:25.000Z,10.652343750000004
2023-05-19T05:05:25.000Z,10.652343750000004
2023-05-19T05:06:25.000Z,10.330078124999996
2023-05-19T05:07:25.000Z,10.652343750000004
2023-05-19T05:08:26.000Z,11.619140625000002
2023-05-19T05:09:26.000Z,10.652343750000004
2023-05-19T05:10:26.000Z,10.974609375
2023-05-19T05:11:27.000Z,10.974609375
2023-05-19T05:12:27.000Z,10.974609375
2023-05-19T05:13:27.000Z,10.974609375
2023-05-19T05:14:27.000Z,10.974609375
2023-05-19T05:15:28.000Z,10.974609375
2023-05-19T05:16:28.000Z,10.974609375
2023-05-19T05:17:28.000Z,11.296874999999995
2023-05-19T05:18:28.000Z,10.974609375
2023-05-19T05:19:28.000Z,10.652343750000004
2023-05-19T05:20:29.000Z,10.652343750000004
2023-05-19T05:21:29.000Z,10.974609375
2023-05-19T05:22:29.000Z,10.330078124999996
2023-05-19T05:23:29.000Z,10.974609375
2023-05-19T05:24:29.000Z,10.974609375
2023-05-19T05:25:30.000Z,11.296874999999995
2023-05-19T05:26:30.000Z,11.296874999999995
2023-05-19T05:27:30.000Z,10.974609375
2023-05-19T05:28:30.000Z,12.5859375
2023-05-19T05:29:30.000Z,10.652343750000004
2023-05-19T05:30:31.000Z,10.974609375
2023-05-19T05:31:31.000Z,11.296874999999995
2023-05-19T05:32:31.000Z,12.263671875000004
2023-05-19T05:33:31.000Z,10.652343750000004
2023-05-19T05:34:31.000Z,10.974609375
2023-05-19T05:35:32.000Z,12.5859375
2023-05-19T05:36:32.000Z,11.619140625000002
2023-05-19T05:37:32.000Z,10.330078124999996
2023-05-19T05:38:32.000Z,10.007812500000002
2023-05-19T05:39:32.000Z,10.652343750000004
2023-05-19T05:40:33.000Z,11.619140625000002
2023-05-19T05:41:33.000Z,10.974609375
2023-05-19T05:42:33.000Z,10.330078124999996
2023-05-19T05:43:33.000Z,12.908203124999995
2023-05-19T05:44:34.000Z,12.263671875000004
2023-05-19T05:45:34.000Z,11.619140625000002
2023-05-19T05:46:34.000Z,11.941406249999996
2023-05-19T05:47:34.000Z,11.296874999999995
2023-05-19T05:48:34.000Z,11.619140625000002
2023-05-19T05:49:34.000Z,10.330078124999996
2023-05-19T05:50:35.000Z,11.296874999999995
2023-05-19T05:51:35.000Z,11.619140625000002
2023-05-19T05:52:35.000Z,11.296874999999995
2023-05-19T05:53:36.000Z,11.619140625000002
2023-05-19T05:54:36.000Z,11.619140625000002
2023-05-19T05:55:36.000Z,11.296874999999995
2023-05-19T05:56:37.000Z,10.652343750000004
2023-05-19T05:57:37.000Z,11.296874999999995
2023-05-19T05:58:37.000Z,11.619140625000002
2023-05-19T05:59:37.000Z,11.941406249999996
2023-05-19T06:00:38.000Z,12.5859375
2023-05-19T06:01:38.000Z,12.908203124999995
2023-05-19T06:02:38.000Z,11.296874999999995
2023-05-19T06:03:38.000Z,11.619140625000002
2023-05-19T06:04:38.000Z,11.941406249999996
2023-05-19T06:05:39.000Z,11.296874999999995
2023-05-19T06:06:39.000Z,11.619140625000002
2023-05-19T06:07:39.000Z,11.941406249999996
2023-05-19T06:08:39.000Z,11.619140625000002
2023-05-19T06:09:39.000Z,10.330078124999996
2023-05-19T06:10:40.000Z,11.619140625000002
2023-05-19T06:11:40.000Z,11.619140625000002
2023-05-19T06:12:40.000Z,11.619140625000002
2023-05-19T06:13:40.000Z,12.5859375
2023-05-19T06:14:40.000Z,11.941406249999996
2023-05-19T06:15:41.000Z,11.619140625000002
2023-05-19T06:16:41.000Z,10.652343750000004
2023-05-19T06:17:41.000Z,11.619140625000002
2023-05-19T06:18:41.000Z,11.296874999999995
2023-05-19T06:19:41.000Z,11.619140625000002
2023-05-19T06:20:41.000Z,11.941406249999996
2023-05-19T06:21:42.000Z,11.941406249999996
2023-05-19T06:22:42.000Z,12.263671875000004
2023-05-19T06:23:42.000Z,11.941406249999996
2023-05-19T06:24:42.000Z,11.619140625000002
2023-05-19T06:25:43.000Z,12.263671875000004
2023-05-19T06:26:43.000Z,12.5859375
2023-05-19T06:27:43.000Z,11.941406249999996
2023-05-19T06:28:43.000Z,11.941406249999996
2023-05-19T06:29:43.000Z,12.263671875000004
2023-05-19T06:30:43.000Z,12.263671875000004
2023-05-19T06:31:44.000Z,12.5859375
2023-05-19T06:32:44.000Z,12.263671875000004
2023-05-19T06:33:44.000Z,12.263671875000004
2023-05-19T06:34:44.000Z,12.263671875000004
2023-05-19T06:35:44.000Z,11.619140625000002
2023-05-19T06:36:45.000Z,11.941406249999996
2023-05-19T06:37:45.000Z,12.263671875000004
2023-05-19T06:38:45.000Z,11.941406249999996
2023-05-19T06:39:45.000Z,12.5859375
2023-05-19T06:40:46.000Z,12.263671875000004
2023-05-19T06:41:46.000Z,12.263671875000004
2023-05-19T06:42:46.000Z,12.5859375
2023-05-19T06:43:46.000Z,12.5859375
2023-05-19T06:44:47.000Z,12.5859375
2023-05-19T06:45:47.000Z,12.908203124999995
2023-05-19T06:46:47.000Z,11.941406249999996
2023-05-19T06:47:47.000Z,12.5859375
2023-05-19T06:48:48.000Z,13.230468750000002
2023-05-19T06:49:48.000Z,12.908203124999995
2023-05-19T06:50:53.000Z,13.552734374999996
2023-05-19T06:51:53.000Z,12.5859375
2023-05-19T06:52:53.000Z,12.5859375
2023-05-19T06:53:54.000Z,13.552734374999996
2023-05-19T06:54:54.000Z,12.5859375
2023-05-19T06:55:59.000Z,11.296874999999995
2023-05-19T06:56:59.000Z,12.908203124999995
2023-05-19T06:58:05.000Z,13.552734374999996
2023-05-19T06:59:05.000Z,12.5859375
2023-05-19T07:00:05.000Z,13.874999999999993
2023-05-19T07:01:05.000Z,11.941406249999996
2023-05-19T07:02:10.000Z,12.908203124999995
2023-05-19T07:03:11.000Z,11.941406249999996
2023-05-19T07:04:11.000Z,13.874999999999993
2023-05-19T07:05:11.000Z,11.941406249999996
2023-05-19T07:06:11.000Z,13.874999999999993
2023-05-19T07:07:11.000Z,12.5859375
2023-05-19T07:08:12.000Z,12.5859375
2023-05-19T07:09:12.000Z,12.908203124999995
2023-05-19T07:10:12.000Z,12.908203124999995
2023-05-19T07:11:12.000Z,12.908203124999995
2023-05-19T07:12:13.000Z,12.908203124999995
2023-05-19T07:13:13.000Z,12.5859375
2023-05-19T07:14:13.000Z,12.908203124999995
2023-05-19T07:15:13.000Z,11.619140625000002
2023-05-19T07:16:14.000Z,10.652343750000004
2023-05-19T07:17:14.000Z,12.908203124999995
2023-05-19T07:18:14.000Z,12.5859375
2023-05-19T07:19:14.000Z,11.619140625000002
2023-05-19T07:20:15.000Z,13.230468750000002
2023-05-19T07:21:15.000Z,12.263671875000004
2023-05-19T07:22:15.000Z,12.908203124999995
2023-05-19T07:23:15.000Z,12.908203124999995
2023-05-19T07:24:15.000Z,12.5859375
2023-05-19T07:25:16.000Z,12.5859375
2023-05-19T07:26:16.000Z,12.5859375
2023-05-19T07:27:16.000Z,12.908203124999995
2023-05-19T07:28:16.000Z,12.5859375
2023-05-19T07:29:17.000Z,12.908203124999995
2023-05-19T07:30:17.000Z,11.941406249999996
2023-05-19T07:31:17.000Z,12.908203124999995
2023-05-19T07:32:17.000Z,12.5859375
2023-05-19T07:33:17.000Z,13.552734374999996
2023-05-19T07:34:18.000Z,12.5859375
2023-05-19T07:35:18.000Z,12.908203124999995
2023-05-19T07:36:18.000Z,13.874999999999993
2023-05-19T07:37:18.000Z,12.5859375
2023-05-19T07:38:19.000Z,11.619140625000002
2023-05-19T07:39:19.000Z,11.619140625000002
2023-05-19T07:40:19.000Z,12.263671875000004
2023-05-19T07:41:19.000Z,10.974609375
2023-05-19T07:42:19.000Z,12.5859375
2023-05-19T07:43:19.000Z,12.5859375
2023-05-19T07:44:20.000Z,11.619140625000002
2023-05-19T07:45:20.000Z,11.941406249999996
2023-05-19T07:46:20.000Z,13.230468750000002
2023-05-19T07:47:20.000Z,13.230468750000002
2023-05-19T07:48:21.000Z,12.908203124999995
2023-05-19T07:49:21.000Z,12.908203124999995
2023-05-19T07:50:21.000Z,12.908203124999995
2023-05-19T07:51:21.000Z,12.908203124999995
2023-05-19T07:52:21.000Z,14.197265625
2023-05-19T07:53:22.000Z,12.5859375
2023-05-19T07:54:22.000Z,12.5859375
2023-05-19T07:55:22.000Z,13.230468750000002
2023-05-19T07:56:22.000Z,14.841796875000002
2023-05-19T07:57:22.000Z,13.230468750000002
2023-05-19T07:58:23.000Z,14.197265625
2023-05-19T07:59:23.000Z,13.552734374999996
2023-05-19T08:00:23.000Z,12.5859375
2023-05-19T08:01:23.000Z,13.230468750000002
2023-05-19T08:02:23.000Z,13.230468750000002
2023-05-19T08:03:24.000Z,12.5859375
2023-05-19T08:04:24.000Z,13.874999999999993
2023-05-19T08:05:24.000Z,13.230468750000002
2023-05-19T08:06:24.000Z,13.230468750000002
2023-05-19T08:07:25.000Z,13.552734374999996
2023-05-19T08:08:25.000Z,13.230468750000002
2023-05-19T08:09:25.000Z,12.908203124999995
2023-05-19T08:10:25.000Z,13.230468750000002
2023-05-19T08:11:25.000Z,11.619140625000002
2023-05-19T08:12:26.000Z,12.263671875000004
2023-05-19T08:13:26.000Z,12.908203124999995
2023-05-19T08:14:26.000Z,13.874999999999993
2023-05-19T08:15:26.000Z,13.230468750000002
2023-05-19T08:16:27.000Z,13.230468750000002
2023-05-19T08:17:27.000Z,13.230468750000002
2023-05-19T08:18:27.000Z,13.552734374999996
2023-05-19T08:19:27.000Z,13.552734374999996
2023-05-19T08:20:27.000Z,13.552734374999996
2023-05-19T08:21:27.000Z,12.263671875000004
2023-05-19T08:22:28.000Z,13.552734374999996
2023-05-19T08:23:28.000Z,13.230468750000002
2023-05-19T08:24:28.000Z,13.874999999999993
2023-05-19T08:25:29.000Z,13.552734374999996
2023-05-19T08:26:29.000Z,14.197265625
2023-05-19T08:27:29.000Z,12.908203124999995
2023-05-19T08:28:29.000Z,13.230468750000002
2023-05-19T08:29:29.000Z,13.552734374999996
2023-05-19T08:30:29.000Z,13.874999999999993
2023-05-19T08:31:30.000Z,13.552734374999996
2023-05-19T08:32:30.000Z,13.230468750000002
2023-05-19T08:33:30.000Z,12.908203124999995
2023-05-19T08:34:30.000Z,13.552734374999996
2023-05-19T08:35:30.000Z,13.552734374999996
2023-05-19T08:36:31.000Z,12.908203124999995
2023-05-19T08:37:31.000Z,14.197265625
2023-05-19T08:38:31.000Z,12.908203124999995
2023-05-19T08:39:31.000Z,13.552734374999996
2023-05-19T08:40:31.000Z,14.197265625
2023-05-19T08:41:32.000Z,12.908203124999995
2023-05-19T08:42:32.000Z,13.552734374999996
2023-05-19T08:43:32.000Z,13.552734374999996
2023-05-19T08:44:32.000Z,13.552734374999996
2023-05-19T08:45:33.000Z,13.552734374999996
2023-05-19T08:46:33.000Z,13.230468750000002
2023-05-19T08:47:33.000Z,10.652343750000004
2023-05-19T08:48:33.000Z,14.841796875000002
2023-05-19T08:49:33.000Z,12.908203124999995
2023-05-19T08:50:34.000Z,14.841796875000002
2023-05-19T08:51:34.000Z,14.197265625
2023-05-19T08:52:34.000Z,14.197265625
2023-05-19T08:53:34.000Z,14.197265625
2023-05-19T08:54:35.000Z,14.197265625
2023-05-19T08:55:35.000Z,14.197265625
2023-05-19T08:56:35.000Z,15.80859375
2023-05-19T08:57:35.000Z,15.486328124999993
2023-05-19T08:58:35.000Z,14.519531249999995
2023-05-19T08:59:36.000Z,14.197265625
2023-05-19T09:00:36.000Z,16.130859374999996
2023-05-19T09:01:36.000Z,15.80859375
2023-05-19T09:02:37.000Z,14.197265625
2023-05-19T09:03:37.000Z,13.552734374999996
2023-05-19T09:04:37.000Z,16.775390624999996
2023-05-19T09:05:37.000Z,14.841796875000002
2023-05-19T09:06:38.000Z,14.197265625
2023-05-19T09:07:38.000Z,15.164062499999996
2023-05-19T09:08:38.000Z,15.164062499999996
2023-05-19T09:09:38.000Z,14.197265625
2023-05-19T09:10:38.000Z,15.486328124999993
2023-05-19T09:11:39.000Z,15.80859375
2023-05-19T09:12:44.000Z,15.164062499999996
2023-05-19T09:13:44.000Z,15.486328124999993
2023-05-19T09:14:44.000Z,15.486328124999993
2023-05-19T09:15:44.000Z,15.80859375
2023-05-19T09:16:45.000Z,16.130859374999996
2023-05-19T09:17:45.000Z,15.486328124999993
2023-05-19T09:18:45.000Z,15.80859375
2023-05-19T09:19:45.000Z,15.486328124999993
2023-05-19T09:20:46.000Z,16.453125
2023-05-19T09:21:46.000Z,15.80859375
2023-05-19T09:22:46.000Z,15.486328124999993
2023-05-19T09:23:46.000Z,15.486328124999993